createdAt,value
2022-09-21T00:01:31.906Z,58.51
2022-09-21T00:04:04.546Z,57.64
2022-09-21T00:06:35.170Z,58.59
2022-09-21T00:09:05.024Z,59.78
2022-09-21T00:11:34.314Z,59.64
2022-09-21T00:14:12.736Z,59.77
2022-09-21T00:16:43.018Z,59.11
2022-09-21T00:19:11.905Z,60.10
2022-09-21T00:21:39.448Z,58.86
2022-09-21T00:24:08.214Z,59.67
2022-09-21T00:26:35.544Z,59.09
2022-09-21T00:29:05.020Z,60.18
2022-09-21T00:31:33.156Z,59.96
2022-09-21T00:34:01.150Z,60.06
2022-09-21T00:36:29.093Z,59.69
2022-09-21T00:39:03.709Z,59.98
2022-09-21T00:41:34.319Z,59.73
2022-09-21T00:44:28.630Z,60.64
2022-09-21T00:47:15.503Z,60.06
2022-09-21T00:49:49.537Z,60.10
2022-09-21T00:52:19.564Z,61.10
2022-09-21T00:55:00.628Z,61.74
2022-09-21T00:57:31.276Z,60.70
2022-09-21T01:00:02.555Z,61.73
2022-09-21T01:02:30.047Z,61.11
2022-09-21T01:04:57.501Z,60.64
2022-09-21T01:07:33.659Z,60.75
2022-09-21T01:10:11.952Z,61.87
2022-09-21T01:13:41.457Z,62.77
2022-09-21T01:17:09.325Z,63.16
2022-09-21T01:20:38.360Z,63.26
2022-09-21T01:24:19.938Z,62.95
2022-09-21T01:27:41.874Z,63.28
2022-09-21T01:30:19.566Z,62.59
2022-09-21T01:33:28.268Z,62.60
2022-09-21T01:36:05.983Z,62.47
2022-09-21T01:38:45.349Z,62.36
2022-09-21T01:41:19.776Z,63.00
2022-09-21T01:43:56.881Z,62.89
2022-09-21T01:46:32.355Z,63.37
2022-09-21T01:49:14.099Z,63.37
2022-09-21T01:51:58.385Z,63.15
2022-09-21T01:54:39.632Z,62.98
2022-09-21T01:57:36.919Z,62.95
2022-09-21T02:00:07.259Z,63.15
2022-09-21T02:02:51.164Z,63.27
2022-09-21T02:05:23.588Z,63.23
2022-09-21T02:07:52.648Z,62.89
2022-09-21T02:10:45.946Z,63.31
2022-09-21T02:13:16.640Z,63.69
2022-09-21T02:16:26.124Z,63.65
2022-09-21T02:20:03.944Z,64.10
2022-09-21T02:23:29.541Z,64.07
2022-09-21T02:26:17.353Z,64.08
2022-09-21T02:29:33.504Z,64.37
2022-09-21T02:32:12.276Z,63.75
2022-09-21T02:35:02.416Z,64.53
2022-09-21T02:37:57.043Z,63.61
2022-09-21T02:40:53.629Z,64.52
2022-09-21T02:43:39.400Z,64.36
2022-09-21T02:46:21.382Z,64.88
2022-09-21T02:49:03.629Z,64.71
2022-09-21T02:51:41.353Z,64.75
2022-09-21T02:54:14.385Z,64.47
2022-09-21T02:56:44.552Z,64.34
2022-09-21T02:59:16.698Z,65.17
2022-09-21T03:01:44.615Z,65.17
2022-09-21T03:04:12.301Z,65.51
2022-09-21T03:06:39.601Z,65.25
2022-09-21T03:09:07.039Z,65.28
2022-09-21T03:11:36.113Z,64.65
2022-09-21T03:14:08.595Z,64.11
2022-09-21T03:16:37.576Z,64.98
2022-09-21T03:19:06.136Z,65.37
2022-09-21T03:21:34.368Z,66.04
2022-09-21T03:24:01.999Z,65.46
2022-09-21T03:26:29.704Z,66.01
2022-09-21T03:28:57.091Z,66.72
2022-09-21T03:31:24.430Z,66.46
2022-09-21T03:33:51.798Z,66.23
2022-09-21T03:36:19.521Z,65.51
2022-09-21T03:38:46.827Z,65.10
2022-09-21T03:41:15.271Z,65.71
2022-09-21T03:43:42.539Z,65.63
2022-09-21T03:46:10.148Z,65.79
2022-09-21T03:48:37.447Z,67.07
2022-09-21T03:51:04.883Z,66.39
2022-09-21T03:53:32.153Z,66.09
2022-09-21T03:55:59.420Z,65.61
2022-09-21T03:58:26.772Z,66.61
2022-09-21T04:00:54.788Z,66.24
2022-09-21T04:03:22.260Z,67.38
2022-09-21T04:05:49.787Z,67.45
2022-09-21T04:08:17.028Z,68.45
2022-09-21T04:10:44.387Z,67.18
2022-09-21T04:13:14.358Z,67.44
2022-09-21T04:15:41.680Z,67.99
2022-09-21T04:18:09.062Z,66.78
2022-09-21T04:20:36.392Z,67.36
2022-09-21T04:23:03.748Z,67.12
2022-09-21T04:25:31.031Z,66.54
2022-09-21T04:27:58.324Z,67.72
2022-09-21T04:30:25.787Z,68.35
2022-09-21T04:32:53.320Z,67.60
2022-09-21T04:35:21.254Z,67.67
2022-09-21T04:37:48.499Z,68.14
2022-09-21T04:40:15.909Z,68.55
2022-09-21T04:42:43.257Z,69.00
2022-09-21T04:45:11.209Z,68.04
2022-09-21T04:47:38.472Z,67.74
2022-09-21T04:50:07.084Z,68.30
2022-09-21T04:52:34.373Z,67.84
2022-09-21T04:55:01.665Z,69.17
2022-09-21T04:57:29.644Z,69.71
2022-09-21T04:59:56.913Z,70.46
2022-09-21T05:02:25.344Z,69.31
2022-09-21T05:04:52.600Z,70.48
2022-09-21T05:07:19.876Z,70.86
2022-09-21T05:10:05.279Z,71.19
2022-09-21T05:12:39.709Z,71.67
2022-09-21T05:15:11.406Z,71.79
2022-09-21T05:17:39.968Z,69.68
2022-09-21T05:20:07.900Z,70.93
2022-09-21T05:22:35.590Z,71.96
2022-09-21T05:25:03.128Z,71.03
2022-09-21T05:27:30.375Z,70.32
2022-09-21T05:29:58.281Z,70.33
2022-09-21T05:32:53.833Z,70.57
2022-09-21T05:36:10.489Z,70.17
2022-09-21T05:38:38.219Z,69.63
2022-09-21T05:41:06.587Z,69.30
2022-09-21T05:43:34.599Z,68.03
2022-09-21T05:46:59.147Z,68.96
2022-09-21T05:50:51.036Z,69.28
2022-09-21T05:54:12.108Z,71.51
2022-09-21T05:57:12.576Z,73.02
2022-09-21T06:00:16.360Z,72.64
2022-09-21T06:03:31.083Z,74.02
2022-09-21T06:05:59.452Z,72.10
2022-09-21T06:08:27.643Z,71.88
2022-09-21T06:10:57.645Z,71.67
2022-09-21T06:13:24.933Z,72.11
2022-09-21T06:15:52.416Z,71.35
2022-09-21T06:18:20.016Z,71.35
2022-09-21T06:20:47.580Z,71.51
2022-09-21T06:23:15.615Z,71.67
2022-09-21T06:25:44.499Z,71.06
2022-09-21T06:28:13.391Z,70.12
2022-09-21T06:30:42.857Z,70.32
2022-09-21T06:33:10.601Z,70.64
2022-09-21T06:35:38.080Z,71.30
2022-09-21T06:38:08.133Z,70.23
2022-09-21T06:40:38.969Z,70.61
2022-09-21T06:43:06.620Z,71.16
2022-09-21T06:45:34.226Z,70.62
2022-09-21T06:48:01.783Z,70.76
2022-09-21T06:50:29.446Z,70.82
2022-09-21T06:53:03.509Z,70.78
2022-09-21T06:55:32.077Z,71.02
2022-09-21T06:58:05.462Z,71.12
2022-09-21T07:00:33.527Z,70.86
2022-09-21T07:03:04.470Z,69.80
2022-09-21T07:05:34.208Z,70.23
2022-09-21T07:08:02.443Z,70.26
2022-09-21T07:10:29.756Z,71.42
2022-09-21T07:13:02.707Z,71.03
2022-09-21T07:15:31.180Z,70.29
2022-09-21T07:18:06.148Z,70.42
2022-09-21T07:20:33.795Z,69.71
2022-09-21T07:23:01.789Z,69.47
2022-09-21T07:25:29.299Z,69.49
2022-09-21T07:27:56.571Z,69.51
2022-09-21T07:30:23.933Z,71.05
2022-09-21T07:32:51.252Z,70.53
2022-09-21T07:35:20.121Z,69.61
2022-09-21T07:37:47.367Z,69.58
2022-09-21T07:40:14.749Z,68.62
2022-09-21T07:42:44.848Z,68.37
2022-09-21T07:45:12.298Z,67.94
2022-09-21T07:47:39.576Z,68.21
2022-09-21T07:50:07.602Z,68.26
2022-09-21T07:52:35.147Z,68.22
2022-09-21T07:55:02.425Z,68.24
2022-09-21T07:57:48.215Z,68.45
2022-09-21T08:00:15.764Z,68.97
2022-09-21T08:02:47.498Z,69.45
2022-09-21T08:05:17.615Z,68.44
2022-09-21T08:07:44.972Z,68.95
2022-09-21T08:10:13.058Z,68.71
2022-09-21T08:12:41.196Z,68.10
2022-09-21T08:15:25.011Z,67.97
2022-09-21T08:17:58.715Z,67.65
2022-09-21T08:20:26.080Z,67.27
2022-09-21T08:22:56.279Z,67.06
2022-09-21T08:25:23.923Z,67.18
2022-09-21T08:27:51.180Z,66.13
2022-09-21T08:30:18.512Z,66.20
2022-09-21T08:32:52.065Z,66.81
2022-09-21T08:35:19.410Z,66.53
2022-09-21T08:37:46.800Z,66.40
2022-09-21T08:40:16.789Z,66.23
2022-09-21T08:43:09.645Z,66.11
2022-09-21T08:45:46.692Z,66.35
2022-09-21T08:48:30.026Z,65.62
2022-09-21T08:51:11.354Z,66.26
2022-09-21T08:53:48.117Z,65.18
2022-09-21T08:56:16.395Z,65.45
2022-09-21T08:58:43.991Z,64.61
2022-09-21T09:01:20.318Z,64.52
2022-09-21T09:04:31.215Z,64.43
2022-09-21T09:07:33.271Z,63.53
2022-09-21T09:10:27.984Z,62.54
2022-09-21T09:14:13.669Z,62.49
2022-09-21T09:17:36.224Z,62.73
2022-09-21T09:20:36.120Z,62.08
2022-09-21T09:23:18.292Z,62.15
2022-09-21T09:26:10.863Z,62.58
2022-09-21T09:29:01.984Z,61.12
2022-09-21T09:31:40.180Z,60.56
2022-09-21T09:34:33.612Z,60.70
2022-09-21T09:37:16.621Z,61.59
2022-09-21T09:39:54.800Z,60.47
2022-09-21T09:43:07.535Z,59.51
2022-09-21T09:46:13.543Z,59.18
2022-09-21T09:49:38.612Z,58.40
2022-09-21T09:52:11.130Z,57.29
2022-09-21T09:54:38.525Z,56.42
2022-09-21T09:57:07.376Z,56.71
2022-09-21T09:59:54.413Z,55.15
2022-09-21T10:02:29.456Z,56.69
2022-09-21T10:05:07.322Z,54.75
2022-09-21T10:07:45.893Z,53.19
2022-09-21T10:10:29.253Z,53.09
2022-09-21T10:13:37.943Z,53.66
2022-09-21T10:16:22.895Z,52.30
2022-09-21T10:18:56.459Z,50.07
2022-09-21T10:21:41.360Z,48.39
2022-09-21T10:24:23.540Z,49.05
2022-09-21T10:27:05.048Z,49.24
2022-09-21T10:29:47.716Z,47.02
2022-09-21T10:32:26.574Z,46.36
2022-09-21T10:35:10.342Z,45.64
2022-09-21T10:37:48.478Z,45.49
2022-09-21T10:40:21.450Z,45.55
2022-09-21T10:43:00.437Z,44.68
2022-09-21T10:45:37.026Z,44.28
2022-09-21T10:48:20.972Z,43.55
2022-09-21T10:50:51.576Z,43.45
2022-09-21T10:53:36.142Z,42.23
2022-09-21T10:56:17.607Z,41.45
2022-09-21T10:59:27.284Z,41.14
2022-09-21T11:02:00.162Z,41.97
2022-09-21T11:04:53.708Z,41.32
2022-09-21T11:07:47.852Z,40.23
2022-09-21T11:10:51.233Z,40.14
2022-09-21T11:13:41.024Z,39.52
2022-09-21T11:16:48.728Z,40.30
2022-09-21T11:19:52.411Z,39.38
2022-09-21T11:22:57.715Z,39.29
2022-09-21T11:25:43.765Z,39.20
2022-09-21T11:28:28.668Z,38.02
2022-09-21T11:31:40.607Z,36.69
2022-09-21T11:34:55.860Z,37.27
2022-09-21T11:38:11.748Z,37.21
2022-09-21T11:40:55.807Z,36.11
2022-09-21T11:44:18.855Z,36.98
2022-09-21T11:47:58.483Z,35.17
2022-09-21T11:51:38.717Z,35.29
2022-09-21T11:55:00.628Z,34.58
2022-09-21T11:57:38.739Z,35.48
2022-09-21T12:00:21.513Z,33.74
2022-09-21T12:03:45.940Z,35.06
2022-09-21T12:07:01.427Z,31.71
2022-09-21T12:10:28.189Z,32.50
2022-09-21T12:13:43.888Z,31.87
2022-09-21T12:17:06.385Z,31.54
2022-09-21T12:20:06.157Z,32.67
2022-09-21T12:22:43.743Z,31.32
2022-09-21T12:25:43.796Z,32.25
2022-09-21T12:28:49.266Z,31.11
2022-09-21T12:31:30.308Z,32.53
2022-09-21T12:34:38.031Z,32.56
2022-09-21T12:37:32.524Z,30.91
2022-09-21T12:40:36.653Z,31.34
2022-09-21T12:43:39.613Z,31.32
2022-09-21T12:46:29.955Z,31.10
2022-09-21T12:49:03.099Z,30.24
2022-09-21T12:51:43.000Z,29.36
2022-09-21T12:55:10.024Z,29.85
2022-09-21T12:58:41.364Z,30.24
2022-09-21T13:01:56.989Z,28.58
2022-09-21T13:05:15.999Z,27.74
2022-09-21T13:08:31.030Z,27.41
2022-09-21T13:11:07.823Z,26.01
2022-09-21T13:13:56.327Z,26.55
2022-09-21T13:16:40.201Z,26.59
2022-09-21T13:19:13.459Z,27.76
2022-09-21T13:21:42.154Z,28.13
2022-09-21T13:24:30.457Z,26.36
2022-09-21T13:27:05.026Z,28.16
2022-09-21T13:29:38.047Z,27.20
2022-09-21T13:32:24.053Z,27.51
2022-09-21T13:34:51.588Z,27.81
2022-09-21T13:37:19.120Z,29.51
2022-09-21T13:40:06.230Z,29.77
2022-09-21T13:42:33.675Z,30.93
2022-09-21T13:45:15.597Z,28.62
2022-09-21T13:47:47.308Z,28.45
2022-09-21T13:50:39.159Z,27.32
2022-09-21T13:53:29.611Z,27.41
2022-09-21T13:56:16.724Z,27.10
2022-09-21T13:58:52.146Z,26.80
2022-09-21T14:01:45.899Z,26.10
2022-09-21T14:04:31.678Z,25.40
2022-09-21T14:07:08.041Z,25.86
2022-09-21T14:10:03.686Z,25.80
2022-09-21T14:12:44.576Z,25.43
2022-09-21T14:15:19.197Z,25.74
2022-09-21T14:18:37.653Z,27.65
2022-09-21T14:21:18.349Z,26.39
2022-09-21T14:24:07.679Z,27.02
2022-09-21T14:26:39.734Z,27.35
2022-09-21T14:29:48.271Z,28.32
2022-09-21T14:32:25.564Z,27.83
2022-09-21T14:35:08.141Z,28.89
2022-09-21T14:37:52.162Z,29.00
2022-09-21T14:40:42.248Z,29.52
2022-09-21T14:43:20.408Z,29.16
2022-09-21T14:46:36.798Z,28.46
2022-09-21T14:49:51.188Z,31.32
2022-09-21T14:52:43.375Z,29.17
2022-09-21T14:56:22.551Z,29.98
2022-09-21T15:00:00.891Z,29.84
2022-09-21T15:02:35.703Z,29.60
2022-09-21T15:05:09.606Z,29.90
2022-09-21T15:08:56.548Z,28.58
2022-09-21T15:11:44.280Z,30.33
2022-09-21T15:14:38.236Z,29.03
2022-09-21T15:17:30.038Z,28.74
2022-09-21T15:20:16.213Z,28.73
2022-09-21T15:22:44.185Z,29.28
2022-09-21T15:25:14.671Z,29.23
2022-09-21T15:27:47.367Z,29.07
2022-09-21T15:30:33.125Z,29.21
2022-09-21T15:33:02.751Z,29.51
2022-09-21T15:35:33.739Z,29.37
2022-09-21T15:38:01.671Z,30.06
2022-09-21T15:40:35.893Z,31.44
2022-09-21T15:43:11.728Z,30.62
2022-09-21T15:46:07.441Z,29.21
2022-09-21T15:48:42.210Z,29.26
2022-09-21T15:51:31.148Z,29.58
2022-09-21T15:54:30.530Z,29.58
2022-09-21T15:57:05.921Z,30.37
2022-09-21T15:59:35.436Z,30.64
2022-09-21T16:02:17.352Z,29.85
2022-09-21T16:04:52.471Z,30.45
2022-09-21T16:07:38.823Z,30.56
2022-09-21T16:10:30.818Z,30.67
2022-09-21T16:13:43.821Z,30.35
2022-09-21T16:16:14.849Z,30.77
2022-09-21T16:18:54.422Z,30.77
2022-09-21T16:21:27.671Z,30.59
2022-09-21T16:23:59.183Z,31.19
2022-09-21T16:26:38.001Z,30.59
2022-09-21T16:29:45.531Z,30.50
2022-09-21T16:32:18.695Z,31.36
2022-09-21T16:34:52.685Z,31.42
2022-09-21T16:37:25.912Z,31.70
2022-09-21T16:40:00.566Z,31.46
2022-09-21T16:42:34.331Z,31.45
2022-09-21T16:45:11.264Z,31.74
2022-09-21T16:47:39.248Z,31.53
2022-09-21T16:50:18.998Z,32.04
2022-09-21T16:52:52.058Z,32.83
2022-09-21T16:55:24.351Z,32.77
2022-09-21T16:57:54.327Z,32.77
2022-09-21T17:00:22.165Z,33.17
2022-09-21T17:02:49.795Z,32.90
2022-09-21T17:05:20.683Z,33.40
2022-09-21T17:07:59.198Z,33.44
2022-09-21T17:10:37.873Z,33.68
2022-09-21T17:13:06.890Z,33.84
2022-09-21T17:15:36.352Z,33.68
2022-09-21T17:18:04.672Z,33.95
2022-09-21T17:20:43.760Z,34.36
2022-09-21T17:23:12.076Z,34.31
2022-09-21T17:25:39.435Z,34.43
2022-09-21T17:28:25.746Z,34.45
2022-09-21T17:30:54.793Z,34.96
2022-09-21T17:33:25.043Z,34.81
2022-09-21T17:35:53.208Z,35.27
2022-09-21T17:38:20.738Z,35.35
2022-09-21T17:40:48.305Z,35.37
2022-09-21T17:43:54.896Z,35.89
2022-09-21T17:47:01.408Z,36.24
2022-09-21T17:49:29.968Z,35.98
2022-09-21T17:52:16.288Z,36.08
2022-09-21T17:54:43.927Z,36.37
2022-09-21T17:57:41.924Z,37.00
2022-09-21T18:00:32.250Z,37.11
2022-09-21T18:03:00.009Z,37.32
2022-09-21T18:05:30.761Z,37.45
2022-09-21T18:07:59.014Z,37.75
2022-09-21T18:10:27.520Z,37.86
2022-09-21T18:13:47.954Z,38.63
2022-09-21T18:17:01.077Z,38.56
2022-09-21T18:20:34.231Z,39.11
2022-09-21T18:23:37.663Z,39.52
2022-09-21T18:26:05.980Z,39.65
2022-09-21T18:28:48.012Z,39.71
2022-09-21T18:32:06.993Z,39.62
2022-09-21T18:35:18.662Z,40.01
2022-09-21T18:38:26.911Z,40.29
2022-09-21T18:41:46.144Z,40.68
2022-09-21T18:44:49.867Z,40.53
2022-09-21T18:47:38.842Z,40.70
2022-09-21T18:51:14.911Z,41.16
2022-09-21T18:54:03.477Z,41.32
2022-09-21T18:56:37.864Z,41.12
2022-09-21T18:59:07.153Z,41.20
2022-09-21T19:01:35.180Z,40.66
2022-09-21T19:04:03.327Z,41.10
2022-09-21T19:06:44.559Z,41.04
2022-09-21T19:09:37.444Z,40.89
2022-09-21T19:13:02.375Z,41.13
2022-09-21T19:16:00.820Z,41.17
2022-09-21T19:19:06.740Z,41.41
2022-09-21T19:22:01.505Z,41.48
2022-09-21T19:25:04.524Z,41.80
2022-09-21T19:27:46.968Z,42.02
2022-09-21T19:30:17.116Z,42.22
2022-09-21T19:33:02.889Z,42.54
2022-09-21T19:35:34.364Z,41.93
2022-09-21T19:38:09.087Z,42.03
2022-09-21T19:40:39.494Z,42.39
2022-09-21T19:43:40.228Z,42.95
2022-09-21T19:47:12.147Z,42.48
2022-09-21T19:49:54.706Z,42.37
2022-09-21T19:52:35.639Z,43.37
2022-09-21T19:55:23.551Z,43.34
2022-09-21T19:58:14.502Z,44.68
2022-09-21T20:00:43.710Z,43.67
2022-09-21T20:03:44.690Z,44.35
2022-09-21T20:06:44.193Z,44.71
2022-09-21T20:09:42.133Z,44.92
2022-09-21T20:12:42.090Z,44.85
2022-09-21T20:15:29.379Z,44.63
2022-09-21T20:18:14.773Z,45.06
2022-09-21T20:20:43.080Z,45.25
2022-09-21T20:23:13.902Z,45.28
2022-09-21T20:26:01.414Z,45.64
2022-09-21T20:28:29.148Z,45.74
2022-09-21T20:30:56.914Z,46.06
2022-09-21T20:33:26.873Z,46.09
2022-09-21T20:35:55.890Z,45.81
2022-09-21T20:38:23.516Z,45.67
2022-09-21T20:40:52.339Z,46.02
2022-09-21T20:43:21.915Z,45.70
2022-09-21T20:45:49.380Z,45.50
2022-09-21T20:48:17.488Z,45.67
2022-09-21T20:50:50.370Z,46.08
2022-09-21T20:53:19.264Z,47.06
2022-09-21T20:56:00.963Z,46.35
2022-09-21T20:58:35.233Z,47.25
2022-09-21T21:01:10.009Z,47.21
2022-09-21T21:03:37.504Z,46.85
2022-09-21T21:06:18.649Z,46.67
2022-09-21T21:08:46.264Z,47.04
2022-09-21T21:11:16.908Z,46.95
2022-09-21T21:13:44.286Z,47.19
2022-09-21T21:16:12.499Z,47.50
2022-09-21T21:18:41.624Z,47.47
2022-09-21T21:21:09.737Z,47.09
2022-09-21T21:23:57.161Z,47.15
2022-09-21T21:26:43.858Z,47.20
2022-09-21T21:29:14.504Z,47.01
2022-09-21T21:31:42.207Z,47.32
2022-09-21T21:34:09.549Z,47.67
2022-09-21T21:36:36.845Z,47.15
2022-09-21T21:39:04.159Z,47.25
2022-09-21T21:41:32.655Z,47.68
2022-09-21T21:44:00.196Z,47.75
2022-09-21T21:46:28.027Z,47.22
2022-09-21T21:48:55.327Z,47.75
2022-09-21T21:51:22.595Z,47.57
2022-09-21T21:53:49.869Z,47.40
2022-09-21T21:56:20.083Z,47.14
2022-09-21T21:58:47.525Z,48.00
2022-09-21T22:01:22.255Z,47.99
2022-09-21T22:04:01.676Z,46.74
2022-09-21T22:06:33.391Z,47.19
2022-09-21T22:09:03.499Z,47.38
2022-09-21T22:11:32.055Z,47.94
2022-09-21T22:14:02.645Z,47.44
2022-09-21T22:16:32.196Z,47.93
2022-09-21T22:19:04.685Z,47.70
2022-09-21T22:21:48.187Z,47.80
2022-09-21T22:24:17.810Z,48.11
2022-09-21T22:26:48.424Z,48.26
2022-09-21T22:29:17.312Z,48.89
2022-09-21T22:31:50.089Z,49.15
2022-09-21T22:34:17.680Z,49.21
2022-09-21T22:36:45.107Z,49.29
2022-09-21T22:39:12.946Z,49.89
2022-09-21T22:41:42.787Z,50.25
2022-09-21T22:44:11.361Z,50.56
2022-09-21T22:46:39.109Z,51.86
2022-09-21T22:49:07.739Z,53.72
2022-09-21T22:51:37.857Z,53.98
2022-09-21T22:54:05.241Z,54.88
2022-09-21T22:56:35.039Z,54.88
2022-09-21T22:59:05.428Z,55.85
2022-09-21T23:01:40.223Z,54.26
2022-09-21T23:04:13.630Z,55.28
2022-09-21T23:06:45.260Z,55.62
2022-09-21T23:09:21.360Z,54.28
2022-09-21T23:11:54.917Z,55.89
2022-09-21T23:14:23.537Z,54.49
2022-09-21T23:16:51.190Z,54.72
2022-09-21T23:19:18.540Z,55.13
2022-09-21T23:21:50.137Z,54.20
2022-09-21T23:24:20.334Z,55.95
2022-09-21T23:26:52.963Z,55.38
2022-09-21T23:29:20.553Z,55.15
2022-09-21T23:31:47.993Z,54.97
2022-09-21T23:34:16.422Z,56.17
2022-09-21T23:36:45.445Z,55.55
2022-09-21T23:39:15.209Z,55.61
2022-09-21T23:41:42.885Z,55.58
2022-09-21T23:44:11.168Z,57.16
2022-09-21T23:46:40.918Z,55.94
2022-09-21T23:49:09.007Z,56.03
2022-09-21T23:51:36.911Z,56.43
2022-09-21T23:54:04.967Z,56.31
2022-09-21T23:56:32.768Z,56.74
2022-09-21T23:59:00.937Z,56.84
